createdAt,value
2022-12-29T00:00:00.491Z,99860
2022-12-29T00:01:00.604Z,99860
2022-12-29T00:02:00.487Z,99860
2022-12-29T00:03:00.707Z,99860
2022-12-29T00:04:00.996Z,99860
2022-12-29T00:05:00.496Z,99860
2022-12-29T00:06:00.498Z,99840
2022-12-29T00:07:00.454Z,99840
2022-12-29T00:08:00.479Z,99840
2022-12-29T00:09:00.498Z,99840
2022-12-29T00:10:00.690Z,99840
2022-12-29T00:11:00.465Z,99840
2022-12-29T00:12:01.049Z,99850
2022-12-29T00:13:00.476Z,99850
2022-12-29T00:14:00.487Z,99840
2022-12-29T00:15:00.479Z,99840
2022-12-29T00:16:00.496Z,99840
2022-12-29T00:17:00.485Z,99840
2022-12-29T00:18:00.460Z,99840
2022-12-29T00:19:00.858Z,99840
2022-12-29T00:20:00.452Z,99850
2022-12-29T00:21:00.470Z,99850
2022-12-29T00:22:00.508Z,99840
2022-12-29T00:23:00.455Z,99840
2022-12-29T00:24:00.485Z,99850
2022-12-29T00:25:00.952Z,99850
2022-12-29T00:26:02.675Z,99830
2022-12-29T00:27:01.478Z,99830
2022-12-29T00:28:06.527Z,99820
2022-12-29T00:29:00.529Z,99820
2022-12-29T00:30:00.491Z,99820
2022-12-29T00:31:00.612Z,99820
2022-12-29T00:32:00.480Z,99810
2022-12-29T00:33:00.627Z,99810
2022-12-29T00:34:00.492Z,99810
2022-12-29T00:35:00.468Z,99810
2022-12-29T00:36:03.939Z,99810
2022-12-29T00:37:00.608Z,99810
2022-12-29T00:38:03.223Z,99820
2022-12-29T00:39:02.082Z,99820
2022-12-29T00:40:00.490Z,99820
2022-12-29T00:41:00.504Z,99820
2022-12-29T00:42:04.499Z,99810
2022-12-29T00:43:00.479Z,99810
2022-12-29T00:44:00.693Z,99820
2022-12-29T00:45:00.504Z,99820
2022-12-29T00:46:00.450Z,99820
2022-12-29T00:47:00.688Z,99820
2022-12-29T00:48:00.454Z,99810
2022-12-29T00:49:01.038Z,99810
2022-12-29T00:50:00.513Z,99820
2022-12-29T00:51:00.476Z,99820
2022-12-29T00:52:08.839Z,99810
2022-12-29T00:53:00.480Z,99810
2022-12-29T00:54:00.480Z,99800
2022-12-29T00:55:00.450Z,99800
2022-12-29T00:56:00.516Z,99810
2022-12-29T00:57:01.023Z,99810
2022-12-29T00:58:00.473Z,99790
2022-12-29T00:59:01.491Z,99790
2022-12-29T01:00:00.490Z,99790
2022-12-29T01:01:01.398Z,99790
2022-12-29T01:02:00.611Z,99790
2022-12-29T01:03:00.667Z,99790
2022-12-29T01:04:04.140Z,99790
2022-12-29T01:05:00.484Z,99790
2022-12-29T01:06:01.190Z,99790
2022-12-29T01:07:00.520Z,99790
2022-12-29T01:08:00.468Z,99790
2022-12-29T01:09:00.524Z,99790
2022-12-29T01:10:00.458Z,99790
2022-12-29T01:11:01.302Z,99790
2022-12-29T01:12:00.583Z,99790
2022-12-29T01:13:00.449Z,99790
2022-12-29T01:14:00.461Z,99790
2022-12-29T01:15:00.462Z,99790
2022-12-29T01:16:00.529Z,99780
2022-12-29T01:17:00.476Z,99780
2022-12-29T01:18:00.457Z,99780
2022-12-29T01:19:00.481Z,99780
2022-12-29T01:20:00.842Z,99780
2022-12-29T01:21:01.765Z,99780
2022-12-29T01:22:00.559Z,99770
2022-12-29T01:23:00.455Z,99770
2022-12-29T01:24:00.524Z,99760
2022-12-29T01:25:00.459Z,99760
2022-12-29T01:26:08.799Z,99770
2022-12-29T01:27:00.481Z,99770
2022-12-29T01:28:00.479Z,99770
2022-12-29T01:29:00.453Z,99770
2022-12-29T01:30:00.508Z,99770
2022-12-29T01:31:00.799Z,99770
2022-12-29T01:32:00.515Z,99770
2022-12-29T01:33:00.663Z,99770
2022-12-29T01:34:00.739Z,99770
2022-12-29T01:35:00.486Z,99770
2022-12-29T01:36:01.836Z,99770
2022-12-29T01:37:00.482Z,99770
2022-12-29T01:38:00.498Z,99760
2022-12-29T01:39:00.511Z,99760
2022-12-29T01:40:00.460Z,99750
2022-12-29T01:41:00.484Z,99750
2022-12-29T01:42:00.469Z,99750
2022-12-29T01:43:00.463Z,99750
2022-12-29T01:44:00.475Z,99740
2022-12-29T01:45:03.357Z,99740
2022-12-29T01:46:00.628Z,99740
2022-12-29T01:47:00.531Z,99740
2022-12-29T01:48:03.631Z,99740
2022-12-29T01:49:07.956Z,99740
2022-12-29T01:50:04.389Z,99750
2022-12-29T01:51:00.506Z,99750
2022-12-29T01:52:02.768Z,99740
2022-12-29T01:53:04.335Z,99740
2022-12-29T01:54:03.244Z,99740
2022-12-29T01:55:01.718Z,99740
2022-12-29T01:56:03.250Z,99740
2022-12-29T01:57:02.680Z,99740
2022-12-29T01:58:03.879Z,99740
2022-12-29T01:59:03.731Z,99740
2022-12-29T02:00:02.993Z,99730
2022-12-29T02:01:00.625Z,99730
2022-12-29T02:02:01.231Z,99740
2022-12-29T02:03:00.556Z,99740
2022-12-29T02:04:00.942Z,99740
2022-12-29T02:05:05.149Z,99740
2022-12-29T02:06:10.428Z,99740
2022-12-29T02:07:08.665Z,99740
2022-12-29T02:08:01.164Z,99740
2022-12-29T02:09:00.852Z,99740
2022-12-29T02:10:01.788Z,99730
2022-12-29T02:11:00.759Z,99730
2022-12-29T02:12:00.649Z,99740
2022-12-29T02:13:00.474Z,99740
2022-12-29T02:14:03.566Z,99740
2022-12-29T02:15:01.437Z,99740
2022-12-29T02:16:01.501Z,99740
2022-12-29T02:17:00.446Z,99740
2022-12-29T02:18:09.121Z,99740
2022-12-29T02:19:01.538Z,99740
2022-12-29T02:20:10.426Z,99740
2022-12-29T02:21:00.449Z,99740
2022-12-29T02:22:10.426Z,99740
2022-12-29T02:23:10.401Z,99740
2022-12-29T02:24:10.390Z,99740
2022-12-29T02:25:00.446Z,99740
2022-12-29T02:26:10.408Z,99750
2022-12-29T02:27:10.388Z,99750
2022-12-29T02:28:03.708Z,99730
2022-12-29T02:29:10.439Z,99730
2022-12-29T02:30:01.511Z,99730
2022-12-29T02:31:10.431Z,99730
2022-12-29T02:32:07.835Z,99750
2022-12-29T02:33:10.409Z,99750
2022-12-29T02:34:10.452Z,99740
2022-12-29T02:35:07.426Z,99740
2022-12-29T02:36:06.456Z,99740
2022-12-29T02:37:05.321Z,99740
2022-12-29T02:38:07.869Z,99720
2022-12-29T02:39:10.432Z,99720
2022-12-29T02:40:05.893Z,99730
2022-12-29T02:41:10.392Z,99730
2022-12-29T02:42:08.897Z,99730
2022-12-29T02:43:00.445Z,99730
2022-12-29T02:44:10.426Z,99720
2022-12-29T02:45:10.413Z,99720
2022-12-29T02:46:07.829Z,99730
2022-12-29T02:47:06.217Z,99730
2022-12-29T02:48:00.496Z,99720
2022-12-29T02:49:10.411Z,99720
2022-12-29T02:50:07.099Z,99730
2022-12-29T02:51:02.366Z,99730
2022-12-29T02:52:03.175Z,99720
2022-12-29T02:53:02.215Z,99720
2022-12-29T02:54:00.831Z,99730
2022-12-29T02:55:00.519Z,99730
2022-12-29T02:56:00.453Z,99730
2022-12-29T02:57:00.488Z,99730
2022-12-29T02:58:10.392Z,99730
2022-12-29T02:59:00.596Z,99730
2022-12-29T03:00:03.819Z,99720
2022-12-29T03:01:08.012Z,99720
2022-12-29T03:02:01.716Z,99730
2022-12-29T03:03:10.526Z,99730
2022-12-29T03:04:01.484Z,99730
2022-12-29T03:05:01.491Z,99730
2022-12-29T03:06:07.765Z,99720
2022-12-29T03:07:09.194Z,99720
2022-12-29T03:08:05.608Z,99720
2022-12-29T03:09:01.480Z,99720
2022-12-29T03:10:00.479Z,99720
2022-12-29T03:11:05.217Z,99720
2022-12-29T03:12:10.462Z,99720
2022-12-29T03:13:04.663Z,99720
2022-12-29T03:14:10.383Z,99720
2022-12-29T03:15:10.415Z,99720
2022-12-29T03:16:05.669Z,99720
2022-12-29T03:17:05.951Z,99720
2022-12-29T03:18:05.210Z,99720
2022-12-29T03:19:04.581Z,99720
2022-12-29T03:20:05.952Z,99710
2022-12-29T03:21:03.709Z,99710
2022-12-29T03:22:05.473Z,99720
2022-12-29T03:23:01.498Z,99720
2022-12-29T03:24:00.631Z,99720
2022-12-29T03:25:03.850Z,99720
2022-12-29T03:26:02.226Z,99720
2022-12-29T03:27:02.654Z,99720
2022-12-29T03:28:03.202Z,99720
2022-12-29T03:29:00.517Z,99720
2022-12-29T03:30:02.310Z,99720
2022-12-29T03:31:01.223Z,99720
2022-12-29T03:32:02.183Z,99730
2022-12-29T03:33:03.645Z,99730
2022-12-29T03:34:00.858Z,99720
2022-12-29T03:35:01.724Z,99720
2022-12-29T03:36:03.155Z,99720
2022-12-29T03:37:02.761Z,99720
2022-12-29T03:38:10.385Z,99720
2022-12-29T03:39:05.627Z,99720
2022-12-29T03:40:00.574Z,99720
2022-12-29T03:41:03.301Z,99720
2022-12-29T03:42:02.754Z,99710
2022-12-29T03:43:02.080Z,99710
2022-12-29T03:44:00.447Z,99710
2022-12-29T03:45:00.512Z,99710
2022-12-29T03:46:00.532Z,99720
2022-12-29T03:47:00.474Z,99720
2022-12-29T03:48:00.539Z,99710
2022-12-29T03:49:00.480Z,99710
2022-12-29T03:50:00.478Z,99710
2022-12-29T03:51:00.466Z,99710
2022-12-29T03:52:00.662Z,99700
2022-12-29T03:53:00.481Z,99700
2022-12-29T03:54:00.505Z,99730
2022-12-29T03:55:00.540Z,99730
2022-12-29T03:56:00.531Z,99710
2022-12-29T03:57:00.476Z,99710
2022-12-29T03:58:00.481Z,99710
2022-12-29T03:59:00.468Z,99710
2022-12-29T04:00:00.710Z,99720
2022-12-29T04:01:00.458Z,99720
2022-12-29T04:02:00.832Z,99700
2022-12-29T04:03:00.540Z,99700
2022-12-29T04:04:00.450Z,99710
2022-12-29T04:05:00.498Z,99710
2022-12-29T04:06:00.531Z,99720
2022-12-29T04:07:00.474Z,99720
2022-12-29T04:08:00.494Z,99720
2022-12-29T04:09:00.652Z,99720
2022-12-29T04:10:00.477Z,99710
2022-12-29T04:11:00.450Z,99710
2022-12-29T04:12:00.466Z,99710
2022-12-29T04:13:00.480Z,99710
2022-12-29T04:14:00.691Z,99730
2022-12-29T04:15:00.468Z,99730
2022-12-29T04:16:00.670Z,99730
2022-12-29T04:17:00.498Z,99730
2022-12-29T04:18:00.468Z,99730
2022-12-29T04:19:00.449Z,99730
2022-12-29T04:20:00.452Z,99730
2022-12-29T04:21:00.519Z,99730
2022-12-29T04:22:00.472Z,99730
2022-12-29T04:23:02.290Z,99730
2022-12-29T04:24:00.481Z,99710
2022-12-29T04:25:00.455Z,99710
2022-12-29T04:26:00.755Z,99710
2022-12-29T04:27:00.466Z,99710
2022-12-29T04:28:00.795Z,99720
2022-12-29T04:29:00.483Z,99720
2022-12-29T04:30:00.636Z,99730
2022-12-29T04:31:00.773Z,99730
2022-12-29T04:32:00.482Z,99730
2022-12-29T04:33:00.447Z,99730
2022-12-29T04:34:00.463Z,99730
2022-12-29T04:35:00.523Z,99730
2022-12-29T04:36:00.487Z,99730
2022-12-29T04:37:00.477Z,99730
2022-12-29T04:38:00.631Z,99730
2022-12-29T04:39:00.532Z,99730
2022-12-29T04:40:00.478Z,99720
2022-12-29T04:41:00.715Z,99720
2022-12-29T04:42:00.476Z,99720
2022-12-29T04:43:00.470Z,99720
2022-12-29T04:44:00.481Z,99730
2022-12-29T04:45:00.556Z,99730
2022-12-29T04:46:00.488Z,99730
2022-12-29T04:47:00.475Z,99730
2022-12-29T04:48:00.475Z,99730
2022-12-29T04:49:00.475Z,99730
2022-12-29T04:50:00.593Z,99730
2022-12-29T04:51:00.502Z,99730
2022-12-29T04:52:00.481Z,99740
2022-12-29T04:53:00.620Z,99740
2022-12-29T04:54:00.496Z,99730
2022-12-29T04:55:00.782Z,99730
2022-12-29T04:56:00.514Z,99720
2022-12-29T04:57:00.482Z,99720
2022-12-29T04:58:00.522Z,99730
2022-12-29T04:59:00.456Z,99730
2022-12-29T05:00:00.500Z,99740
2022-12-29T05:01:00.469Z,99740
2022-12-29T05:02:00.613Z,99740
2022-12-29T05:03:00.645Z,99740
2022-12-29T05:04:00.566Z,99750
2022-12-29T05:05:00.483Z,99750
2022-12-29T05:06:00.486Z,99750
2022-12-29T05:07:00.500Z,99750
2022-12-29T05:08:00.501Z,99760
2022-12-29T05:09:00.481Z,99760
2022-12-29T05:10:00.496Z,99760
2022-12-29T05:11:00.482Z,99760
2022-12-29T05:12:00.472Z,99760
2022-12-29T05:13:00.477Z,99760
2022-12-29T05:14:00.473Z,99760
2022-12-29T05:15:00.486Z,99760
2022-12-29T05:16:00.555Z,99760
2022-12-29T05:17:00.456Z,99760
2022-12-29T05:18:00.473Z,99770
2022-12-29T05:19:00.457Z,99770
2022-12-29T05:20:00.498Z,99780
2022-12-29T05:21:00.520Z,99780
2022-12-29T05:22:00.469Z,99780
2022-12-29T05:23:00.487Z,99780
2022-12-29T05:24:00.484Z,99780
2022-12-29T05:25:00.459Z,99780
2022-12-29T05:26:00.485Z,99780
2022-12-29T05:27:00.452Z,99780
2022-12-29T05:28:00.518Z,99780
2022-12-29T05:29:00.506Z,99780
2022-12-29T05:30:00.779Z,99790
2022-12-29T05:31:00.584Z,99790
2022-12-29T05:32:00.454Z,99800
2022-12-29T05:33:00.478Z,99800
2022-12-29T05:34:00.448Z,99790
2022-12-29T05:35:00.495Z,99790
2022-12-29T05:36:04.531Z,99790
2022-12-29T05:37:00.490Z,99790
2022-12-29T05:38:00.484Z,99800
2022-12-29T05:39:00.479Z,99800
2022-12-29T05:40:00.461Z,99800
2022-12-29T05:41:00.630Z,99800
2022-12-29T05:42:00.485Z,99800
2022-12-29T05:43:00.631Z,99800
2022-12-29T05:44:00.549Z,99810
2022-12-29T05:45:00.480Z,99810
2022-12-29T05:46:01.078Z,99810
2022-12-29T05:47:00.606Z,99810
2022-12-29T05:48:00.495Z,99800
2022-12-29T05:49:00.466Z,99800
2022-12-29T05:50:00.791Z,99800
2022-12-29T05:51:00.532Z,99800
2022-12-29T05:52:00.455Z,99800
2022-12-29T05:53:00.485Z,99800
2022-12-29T05:54:00.502Z,99810
2022-12-29T05:55:00.482Z,99810
2022-12-29T05:56:00.496Z,99810
2022-12-29T05:57:00.495Z,99810
2022-12-29T05:58:00.516Z,99820
2022-12-29T05:59:00.456Z,99820
2022-12-29T06:00:00.537Z,99820
2022-12-29T06:01:00.548Z,99820
2022-12-29T06:02:00.724Z,99820
2022-12-29T06:03:00.686Z,99820
2022-12-29T06:04:00.842Z,99820
2022-12-29T06:05:00.466Z,99820
2022-12-29T06:06:00.487Z,99820
2022-12-29T06:07:00.566Z,99820
2022-12-29T06:08:00.487Z,99820
2022-12-29T06:09:00.483Z,99820
2022-12-29T06:10:00.480Z,99820
2022-12-29T06:11:00.473Z,99820
2022-12-29T06:12:00.477Z,99830
2022-12-29T06:13:00.491Z,99830
2022-12-29T06:14:00.468Z,99820
2022-12-29T06:15:00.488Z,99820
2022-12-29T06:16:00.526Z,99810
2022-12-29T06:17:00.500Z,99810
2022-12-29T06:18:00.737Z,99820
2022-12-29T06:19:00.510Z,99820
2022-12-29T06:20:00.512Z,99810
2022-12-29T06:21:01.245Z,99810
2022-12-29T06:22:00.473Z,99820
2022-12-29T06:23:00.481Z,99820
2022-12-29T06:24:00.469Z,99820
2022-12-29T06:25:04.920Z,99820
2022-12-29T06:26:00.492Z,99820
2022-12-29T06:27:00.502Z,99820
2022-12-29T06:28:00.481Z,99810
2022-12-29T06:29:00.488Z,99810
2022-12-29T06:30:00.515Z,99810
2022-12-29T06:31:00.479Z,99810
2022-12-29T06:32:00.549Z,99820
2022-12-29T06:33:00.500Z,99820
2022-12-29T06:34:06.453Z,99810
2022-12-29T06:35:00.911Z,99810
2022-12-29T06:36:00.487Z,99810
2022-12-29T06:37:00.606Z,99810
2022-12-29T06:38:00.498Z,99810
2022-12-29T06:39:00.448Z,99810
2022-12-29T06:40:00.499Z,99810
2022-12-29T06:41:00.454Z,99810
2022-12-29T06:42:00.499Z,99810
2022-12-29T06:43:00.492Z,99810
2022-12-29T06:44:00.492Z,99790
2022-12-29T06:45:00.745Z,99790
2022-12-29T06:46:00.504Z,99790
2022-12-29T06:47:00.544Z,99790
2022-12-29T06:48:00.503Z,99810
2022-12-29T06:49:00.486Z,99810
2022-12-29T06:50:00.568Z,99810
2022-12-29T06:51:00.482Z,99810
2022-12-29T06:52:00.529Z,99810
2022-12-29T06:53:00.463Z,99810
2022-12-29T06:54:00.484Z,99810
2022-12-29T06:55:00.455Z,99810
2022-12-29T06:56:00.466Z,99810
2022-12-29T06:57:00.459Z,99810
2022-12-29T06:58:00.478Z,99830
2022-12-29T06:59:00.451Z,99830
2022-12-29T07:00:00.542Z,99810
2022-12-29T07:01:00.509Z,99810
2022-12-29T07:02:00.652Z,99800
2022-12-29T07:03:00.678Z,99800
2022-12-29T07:04:00.449Z,99810
2022-12-29T07:05:00.460Z,99810
2022-12-29T07:06:00.471Z,99820
2022-12-29T07:07:00.477Z,99820
2022-12-29T07:08:00.479Z,99810
2022-12-29T07:09:00.461Z,99810
2022-12-29T07:10:00.482Z,99810
2022-12-29T07:11:00.579Z,99810
2022-12-29T07:12:00.483Z,99810
2022-12-29T07:13:00.483Z,99810
2022-12-29T07:14:05.211Z,99820
2022-12-29T07:15:00.490Z,99820
2022-12-29T07:16:04.789Z,99830
2022-12-29T07:17:00.599Z,99830
2022-12-29T07:18:00.471Z,99840
2022-12-29T07:19:00.452Z,99840
2022-12-29T07:20:00.522Z,99830
2022-12-29T07:21:00.714Z,99830
2022-12-29T07:22:00.460Z,99830
2022-12-29T07:23:00.484Z,99830
2022-12-29T07:24:00.502Z,99830
2022-12-29T07:25:00.463Z,99830
2022-12-29T07:26:02.969Z,99840
2022-12-29T07:27:00.491Z,99840
2022-12-29T07:28:00.520Z,99830
2022-12-29T07:29:00.686Z,99830
2022-12-29T07:30:00.478Z,99850
2022-12-29T07:31:00.567Z,99850
2022-12-29T07:32:00.536Z,99860
2022-12-29T07:33:00.451Z,99860
2022-12-29T07:34:00.449Z,99870
2022-12-29T07:35:00.589Z,99870
2022-12-29T07:36:00.475Z,99860
2022-12-29T07:37:00.482Z,99860
2022-12-29T07:38:00.456Z,99880
2022-12-29T07:39:00.716Z,99880
2022-12-29T07:40:00.869Z,99870
2022-12-29T07:41:00.449Z,99870
2022-12-29T07:42:04.789Z,99870
2022-12-29T07:43:00.487Z,99870
2022-12-29T07:44:00.457Z,99880
2022-12-29T07:45:00.458Z,99880
2022-12-29T07:46:00.728Z,99880
2022-12-29T07:47:00.650Z,99880
2022-12-29T07:48:00.502Z,99870
2022-12-29T07:49:00.452Z,99870
2022-12-29T07:50:00.520Z,99870
2022-12-29T07:51:00.451Z,99870
2022-12-29T07:52:00.489Z,99870
2022-12-29T07:53:00.494Z,99870
2022-12-29T07:54:00.448Z,99870
2022-12-29T07:55:00.491Z,99870
2022-12-29T07:56:00.484Z,99870
2022-12-29T07:57:00.506Z,99870
2022-12-29T07:58:00.478Z,99880
2022-12-29T07:59:00.452Z,99880
2022-12-29T08:00:00.553Z,99890
2022-12-29T08:01:00.511Z,99890
2022-12-29T08:02:00.963Z,99890
2022-12-29T08:03:00.528Z,99890
2022-12-29T08:04:00.547Z,99890
2022-12-29T08:05:00.474Z,99890
2022-12-29T08:06:00.460Z,99890
2022-12-29T08:07:00.466Z,99890
2022-12-29T08:08:00.527Z,99900
2022-12-29T08:09:08.185Z,99900
2022-12-29T08:10:00.463Z,99900
2022-12-29T08:11:00.474Z,99900
2022-12-29T08:12:00.465Z,99900
2022-12-29T08:13:00.456Z,99900
2022-12-29T08:14:00.445Z,99900
2022-12-29T08:15:00.449Z,99900
2022-12-29T08:16:00.530Z,99910
2022-12-29T08:17:00.454Z,99910
2022-12-29T08:18:00.708Z,99910
2022-12-29T08:19:00.538Z,99910
2022-12-29T08:20:00.724Z,99910
2022-12-29T08:21:04.038Z,99910
2022-12-29T08:22:00.462Z,99910
2022-12-29T08:23:00.480Z,99910
2022-12-29T08:24:00.519Z,99910
2022-12-29T08:25:00.768Z,99910
2022-12-29T08:26:01.443Z,99920
2022-12-29T08:27:06.285Z,99920
2022-12-29T08:28:00.474Z,99910
2022-12-29T08:29:00.529Z,99910
2022-12-29T08:30:00.456Z,99920
2022-12-29T08:31:01.256Z,99920
2022-12-29T08:32:00.469Z,99910
2022-12-29T08:33:00.457Z,99910
2022-12-29T08:34:00.510Z,99910
2022-12-29T08:35:00.452Z,99910
2022-12-29T08:36:02.734Z,99900
2022-12-29T08:37:00.496Z,99900
2022-12-29T08:38:00.484Z,99910
2022-12-29T08:39:00.499Z,99910
2022-12-29T08:40:00.491Z,99920
2022-12-29T08:41:00.514Z,99920
2022-12-29T08:42:00.592Z,99900
2022-12-29T08:43:00.483Z,99900
2022-12-29T08:44:00.634Z,99910
2022-12-29T08:45:00.920Z,99910
2022-12-29T08:46:00.511Z,99900
2022-12-29T08:47:00.483Z,99900
2022-12-29T08:48:00.525Z,99900
2022-12-29T08:49:00.454Z,99900
2022-12-29T08:50:00.478Z,99910
2022-12-29T08:51:00.492Z,99910
2022-12-29T08:52:00.477Z,99910
2022-12-29T08:53:00.455Z,99910
2022-12-29T08:54:00.495Z,99900
2022-12-29T08:55:00.463Z,99900
2022-12-29T08:56:05.119Z,99900
2022-12-29T08:57:00.487Z,99900
2022-12-29T08:58:00.477Z,99910
2022-12-29T08:59:00.456Z,99910
2022-12-29T09:00:00.640Z,99910
2022-12-29T09:01:00.553Z,99910
2022-12-29T09:02:00.809Z,99910
2022-12-29T09:04:17.383Z,99900
2022-12-29T09:05:00.658Z,99900
2022-12-29T09:06:00.509Z,99910
2022-12-29T09:07:00.473Z,99910
2022-12-29T09:08:00.503Z,99910
2022-12-29T09:09:00.677Z,99910
2022-12-29T09:10:00.479Z,99910
2022-12-29T09:11:07.865Z,99910
2022-12-29T09:12:00.504Z,99910
2022-12-29T09:13:00.468Z,99910
2022-12-29T09:14:00.488Z,99900
2022-12-29T09:15:00.598Z,99900
2022-12-29T09:16:00.592Z,99910
2022-12-29T09:17:00.518Z,99910
2022-12-29T09:18:00.571Z,99910
2022-12-29T09:19:00.702Z,99910
2022-12-29T09:20:00.459Z,99920
2022-12-29T09:21:02.167Z,99920
2022-12-29T09:22:00.513Z,99920
2022-12-29T09:23:00.534Z,99920
2022-12-29T09:24:00.458Z,99930
2022-12-29T09:25:00.543Z,99930
2022-12-29T09:26:00.491Z,99930
2022-12-29T09:27:00.482Z,99910
2022-12-29T09:28:00.459Z,99920
2022-12-29T09:29:00.489Z,99920
2022-12-29T09:30:00.876Z,99920
2022-12-29T09:31:00.728Z,99920
2022-12-29T09:32:00.510Z,99920
2022-12-29T09:33:00.469Z,99920
2022-12-29T09:34:00.473Z,99930
2022-12-29T09:35:00.543Z,99930
2022-12-29T09:36:00.502Z,99940
2022-12-29T09:37:00.497Z,99940
2022-12-29T09:38:00.512Z,99930
2022-12-29T09:39:00.489Z,99930
2022-12-29T09:40:00.597Z,99940
2022-12-29T09:41:05.149Z,99940
2022-12-29T09:42:07.878Z,99940
2022-12-29T09:43:10.395Z,99940
2022-12-29T09:44:10.447Z,99960
2022-12-29T09:45:07.568Z,99960
2022-12-29T09:46:07.883Z,99950
2022-12-29T09:47:01.032Z,99950
2022-12-29T09:48:04.134Z,99960
2022-12-29T09:49:10.408Z,99960
2022-12-29T09:50:04.415Z,99970
2022-12-29T09:51:03.338Z,99970
2022-12-29T09:52:04.373Z,99980
2022-12-29T09:53:05.572Z,99980
2022-12-29T09:54:04.067Z,99970
2022-12-29T09:55:13.764Z,99970
2022-12-29T09:56:01.347Z,99960
2022-12-29T09:57:00.674Z,99960
2022-12-29T09:58:04.236Z,99970
2022-12-29T10:01:03.887Z,99990
2022-12-29T10:02:10.654Z,99990
2022-12-29T10:03:11.025Z,99990
2022-12-29T10:04:00.702Z,99990
2022-12-29T10:05:00.604Z,99990
2022-12-29T10:06:10.515Z,99990
2022-12-29T10:11:03.487Z,100000
2022-12-29T10:12:10.167Z,100000
2022-12-29T10:13:10.161Z,100000
2022-12-29T10:14:14.066Z,100010
2022-12-29T10:15:04.272Z,100010
2022-12-29T10:16:10.214Z,100010
2022-12-29T10:17:10.163Z,100010
2022-12-29T10:18:09.686Z,100010
2022-12-29T10:19:07.663Z,100010
2022-12-29T10:20:00.244Z,100010
2022-12-29T10:21:10.186Z,100010
2022-12-29T10:22:03.496Z,100020
2022-12-29T10:23:10.157Z,100020
2022-12-29T10:24:03.093Z,100040
2022-12-29T10:25:01.658Z,100040
2022-12-29T10:26:01.315Z,100030
2022-12-29T10:27:00.239Z,100030
2022-12-29T10:28:03.260Z,100030
2022-12-29T10:29:03.575Z,100030
2022-12-29T10:30:01.863Z,100030
2022-12-29T10:31:08.547Z,100030
2022-12-29T10:32:04.555Z,100050
2022-12-29T10:33:04.443Z,100050
2022-12-29T10:34:03.318Z,100050
2022-12-29T10:35:04.940Z,100050
2022-12-29T10:36:02.628Z,100050
2022-12-29T10:37:02.658Z,100050
2022-12-29T10:38:10.160Z,100050
2022-12-29T10:39:05.442Z,100050
2022-12-29T10:40:02.431Z,100060
2022-12-29T10:41:04.091Z,100060
2022-12-29T10:42:01.268Z,100070
2022-12-29T10:43:04.980Z,100070
2022-12-29T10:44:00.831Z,100080
2022-12-29T10:45:00.243Z,100080
2022-12-29T10:46:05.750Z,100080
2022-12-29T10:47:03.487Z,100080
2022-12-29T10:48:02.933Z,100080
2022-12-29T10:49:00.606Z,100080
2022-12-29T10:50:01.368Z,100080
2022-12-29T10:51:02.750Z,100080
2022-12-29T10:52:02.105Z,100080
2022-12-29T10:53:02.057Z,100080
2022-12-29T10:54:00.315Z,100090
2022-12-29T10:55:02.162Z,100090
2022-12-29T10:57:01.701Z,100090
2022-12-29T10:58:02.205Z,100090
2022-12-29T10:59:06.180Z,100090
2022-12-29T11:00:00.279Z,100100
2022-12-29T11:01:00.405Z,100100
2022-12-29T11:02:10.338Z,100090
2022-12-29T11:03:10.360Z,100090
2022-12-29T11:04:03.851Z,100100
2022-12-29T11:05:10.199Z,100100
2022-12-29T11:06:03.889Z,100100
2022-12-29T11:07:00.771Z,100100
2022-12-29T11:08:02.741Z,100110
2022-12-29T11:09:08.705Z,100110
2022-12-29T11:10:10.201Z,100110
2022-12-29T11:11:01.757Z,100110
2022-12-29T11:12:00.267Z,100100
2022-12-29T11:13:01.898Z,100100
2022-12-29T11:14:10.193Z,100120
2022-12-29T11:15:01.530Z,100120
2022-12-29T11:16:00.703Z,100120
2022-12-29T11:17:01.775Z,100120
2022-12-29T11:18:00.229Z,100120
2022-12-29T11:19:01.079Z,100120
2022-12-29T11:20:10.178Z,100120
2022-12-29T11:21:02.316Z,100120
2022-12-29T11:22:10.182Z,100120
2022-12-29T11:23:01.653Z,100120
2022-12-29T11:24:02.376Z,100120
2022-12-29T11:25:10.160Z,100120
2022-12-29T11:26:10.172Z,100120
2022-12-29T11:27:10.178Z,100120
2022-12-29T11:28:00.233Z,100120
2022-12-29T11:29:07.633Z,100120
2022-12-29T11:30:00.227Z,100120
2022-12-29T11:31:01.401Z,100120
2022-12-29T11:32:09.940Z,100140
2022-12-29T11:33:02.803Z,100140
2022-12-29T11:35:00.294Z,100130
2022-12-29T11:36:04.211Z,100130
2022-12-29T11:37:02.632Z,100130
2022-12-29T11:38:01.665Z,100140
2022-12-29T11:39:00.449Z,100140
2022-12-29T11:40:03.506Z,100140
2022-12-29T11:41:00.368Z,100140
2022-12-29T11:42:01.206Z,100140
2022-12-29T11:43:01.404Z,100140
2022-12-29T11:44:02.628Z,100150
2022-12-29T11:45:10.500Z,100150
2022-12-29T11:46:01.112Z,100140
2022-12-29T11:47:00.252Z,100140
2022-12-29T11:48:05.870Z,100150
2022-12-29T11:49:01.525Z,100150
2022-12-29T11:50:01.770Z,100140
2022-12-29T11:51:00.292Z,100140
2022-12-29T11:52:00.443Z,100150
2022-12-29T11:53:02.743Z,100150
2022-12-29T11:54:02.752Z,100150
2022-12-29T11:55:01.474Z,100150
2022-12-29T11:56:02.385Z,100150
2022-12-29T11:57:09.423Z,100150
2022-12-29T11:58:02.222Z,100160
2022-12-29T11:59:10.184Z,100160
2022-12-29T12:00:01.344Z,100160
2022-12-29T12:01:02.785Z,100160
2022-12-29T12:02:03.023Z,100160
2022-12-29T12:03:01.938Z,100160
2022-12-29T12:04:03.170Z,100150
2022-12-29T12:05:05.522Z,100150
2022-12-29T12:06:02.039Z,100160
2022-12-29T12:07:10.172Z,100160
2022-12-29T12:08:07.688Z,100160
2022-12-29T12:09:04.243Z,100160
2022-12-29T12:10:07.472Z,100160
2022-12-29T12:11:10.179Z,100160
2022-12-29T12:12:01.347Z,100160
2022-12-29T12:13:06.063Z,100160
2022-12-29T12:14:00.233Z,100160
2022-12-29T12:15:01.226Z,100160
2022-12-29T12:16:10.261Z,100170
2022-12-29T12:17:04.389Z,100170
2022-12-29T12:18:03.469Z,100160
2022-12-29T12:19:09.459Z,100160
2022-12-29T12:20:04.763Z,100170
2022-12-29T12:21:05.676Z,100170
2022-12-29T12:22:03.780Z,100160
2022-12-29T12:23:00.241Z,100160
2022-12-29T12:24:10.159Z,100170
2022-12-29T12:25:10.181Z,100170
2022-12-29T12:26:10.185Z,100160
2022-12-29T12:27:01.229Z,100160
2022-12-29T12:28:04.488Z,100160
2022-12-29T12:29:03.711Z,100160
2022-12-29T12:30:10.205Z,100170
2022-12-29T12:31:02.431Z,100170
2022-12-29T12:32:10.193Z,100170
2022-12-29T12:33:03.521Z,100170
2022-12-29T12:34:02.998Z,100160
2022-12-29T12:35:01.489Z,100160
2022-12-29T12:36:07.533Z,100170
2022-12-29T12:38:06.603Z,100170
2022-12-29T12:39:05.758Z,100170
2022-12-29T12:40:10.161Z,100170
2022-12-29T12:41:04.904Z,100170
2022-12-29T12:42:10.192Z,100160
2022-12-29T12:43:00.213Z,100160
2022-12-29T12:44:01.919Z,100170
2022-12-29T12:45:10.159Z,100170
2022-12-29T12:46:00.223Z,100170
2022-12-29T12:47:01.252Z,100170
2022-12-29T12:48:07.695Z,100180
2022-12-29T12:49:07.598Z,100180
2022-12-29T12:50:08.075Z,100170
2022-12-29T12:51:08.967Z,100170
2022-12-29T12:52:05.599Z,100170
2022-12-29T12:53:00.237Z,100170
2022-12-29T12:54:10.195Z,100170
2022-12-29T12:55:07.623Z,100170
2022-12-29T12:56:01.254Z,100180
2022-12-29T12:57:01.235Z,100180